createdAt,value
2022-09-10T00:01:36.899Z,66.63
2022-09-10T00:04:11.804Z,28.77
2022-09-10T00:06:40.667Z,36.97
2022-09-10T00:09:09.132Z,21.52
2022-09-10T00:11:39.344Z,35.63
2022-09-10T00:14:10.698Z,24.20
2022-09-10T00:16:38.552Z,27.83
2022-09-10T00:19:07.100Z,65.20
2022-09-10T00:21:35.910Z,37.95
2022-09-10T00:24:05.509Z,29.77
2022-09-10T00:26:38.495Z,63.97
2022-09-10T00:29:09.873Z,30.67
2022-09-10T00:31:38.083Z,45.83
2022-09-10T00:34:06.630Z,49.45
2022-09-10T00:36:40.023Z,22.90
2022-09-10T00:39:11.669Z,40.03
2022-09-10T00:41:41.413Z,26.13
2022-09-10T00:44:41.037Z,44.27
2022-09-10T00:47:20.257Z,44.05
2022-09-10T00:49:52.943Z,22.02
2022-09-10T00:52:21.470Z,14.80
2022-09-10T00:54:49.678Z,26.05
2022-09-10T00:57:21.036Z,32.83
2022-09-10T01:00:05.997Z,39.53
2022-09-10T01:02:34.169Z,25.77
2022-09-10T01:05:04.292Z,33.22
2022-09-10T01:07:33.958Z,19.55
2022-09-10T01:10:07.139Z,28.70
2022-09-10T01:13:02.471Z,18.77
2022-09-10T01:15:56.843Z,24.13
2022-09-10T01:19:07.752Z,21.77
2022-09-10T01:22:14.791Z,25.15
2022-09-10T01:25:15.126Z,35.60
2022-09-10T01:27:53.475Z,32.80
2022-09-10T01:30:24.699Z,24.15
2022-09-10T01:33:15.754Z,44.22
2022-09-10T01:35:51.444Z,29.83
2022-09-10T01:38:32.023Z,20.93
2022-09-10T01:41:01.759Z,22.98
2022-09-10T01:43:35.271Z,21.88
2022-09-10T01:46:21.949Z,19.50
2022-09-10T01:49:24.406Z,18.27
2022-09-10T01:52:18.767Z,19.87
2022-09-10T01:55:10.771Z,24.77
2022-09-10T01:58:04.470Z,20.75
2022-09-10T02:00:46.134Z,20.98
2022-09-10T02:03:23.106Z,18.20
2022-09-10T02:05:55.253Z,17.40
2022-09-10T02:08:31.379Z,20.90
2022-09-10T02:11:06.616Z,21.88
2022-09-10T02:13:38.279Z,19.80
2022-09-10T02:16:31.612Z,21.35
2022-09-10T02:19:02.222Z,19.80
2022-09-10T02:21:32.478Z,18.65
2022-09-10T02:24:06.134Z,17.60
2022-09-10T02:26:40.028Z,15.35
2022-09-10T02:29:09.492Z,16.35
2022-09-10T02:31:40.175Z,17.83
2022-09-10T02:34:08.275Z,20.95
2022-09-10T02:36:36.215Z,17.90
2022-09-10T02:39:05.647Z,16.02
2022-09-10T02:41:37.938Z,16.92
2022-09-10T02:44:06.145Z,39.23
2022-09-10T02:46:34.000Z,22.95
2022-09-10T02:49:01.790Z,22.70
2022-09-10T02:51:32.150Z,19.85
2022-09-10T02:54:00.004Z,18.58
2022-09-10T02:56:27.599Z,19.63
2022-09-10T02:58:55.767Z,21.05
2022-09-10T03:01:25.653Z,19.98
2022-09-10T03:04:00.129Z,17.98
2022-09-10T03:06:28.052Z,19.30
2022-09-10T03:08:55.903Z,28.03
2022-09-10T03:11:25.654Z,33.42
2022-09-10T03:13:53.887Z,24.52
2022-09-10T03:16:21.749Z,19.65
2022-09-10T03:18:49.771Z,22.77
2022-09-10T03:21:20.483Z,19.97
2022-09-10T03:23:50.898Z,20.75
2022-09-10T03:26:26.150Z,21.58
2022-09-10T03:28:55.132Z,18.52
2022-09-10T03:31:27.552Z,21.60
2022-09-10T03:33:55.931Z,21.20
2022-09-10T03:36:23.992Z,24.23
2022-09-10T03:38:51.775Z,22.65
2022-09-10T03:41:19.760Z,21.02
2022-09-10T03:43:49.802Z,20.05
2022-09-10T03:46:17.604Z,20.67
2022-09-10T03:48:50.086Z,27.27
2022-09-10T03:51:24.035Z,23.63
2022-09-10T03:53:52.296Z,22.48
2022-09-10T03:56:21.734Z,19.30
2022-09-10T03:58:52.575Z,20.93
2022-09-10T04:01:20.737Z,20.45
2022-09-10T04:03:49.611Z,27.75
2022-09-10T04:06:18.188Z,22.08
2022-09-10T04:08:49.969Z,23.10
2022-09-10T04:11:18.028Z,24.50
2022-09-10T04:13:49.368Z,26.45
2022-09-10T04:16:22.624Z,24.55
2022-09-10T04:18:51.414Z,23.75
2022-09-10T04:21:20.542Z,23.27
2022-09-10T04:23:54.840Z,19.60
2022-09-10T04:26:23.567Z,22.55
2022-09-10T04:28:51.342Z,23.05
2022-09-10T04:31:20.048Z,20.73
2022-09-10T04:33:48.730Z,17.65
2022-09-10T04:36:20.956Z,16.03
2022-09-10T04:38:49.537Z,16.80
2022-09-10T04:41:19.790Z,14.90
2022-09-10T04:43:49.454Z,15.50
2022-09-10T04:46:18.001Z,15.73
2022-09-10T04:48:47.366Z,15.87
2022-09-10T04:51:19.144Z,17.25
2022-09-10T04:53:49.126Z,15.40
2022-09-10T04:56:17.513Z,14.23
2022-09-10T04:58:45.799Z,18.15
2022-09-10T05:01:14.126Z,14.60
2022-09-10T05:03:44.453Z,15.52
2022-09-10T05:06:16.264Z,19.63
2022-09-10T05:08:47.484Z,18.98
2022-09-10T05:11:16.447Z,18.10
2022-09-10T05:14:28.248Z,15.43
2022-09-10T05:17:05.092Z,15.52
2022-09-10T05:19:34.636Z,16.63
2022-09-10T05:22:07.308Z,15.68
2022-09-10T05:24:36.533Z,17.33
2022-09-10T05:27:07.766Z,16.13
2022-09-10T05:29:38.915Z,16.20
2022-09-10T05:32:09.782Z,15.38
2022-09-10T05:34:40.214Z,14.52
2022-09-10T05:37:17.267Z,14.45
2022-09-10T05:39:58.428Z,15.60
2022-09-10T05:42:31.484Z,18.02
2022-09-10T05:44:59.686Z,18.27
2022-09-10T05:47:28.556Z,19.75
2022-09-10T05:49:56.898Z,18.55
2022-09-10T05:52:24.989Z,17.93
2022-09-10T05:54:56.698Z,18.30
2022-09-10T05:57:24.756Z,17.83
2022-09-10T05:59:52.648Z,16.45
2022-09-10T06:02:24.112Z,18.95
2022-09-10T06:04:54.785Z,17.13
2022-09-10T06:07:23.617Z,21.33
2022-09-10T06:09:52.004Z,18.92
2022-09-10T06:12:27.614Z,20.33
2022-09-10T06:14:55.430Z,20.75
2022-09-10T06:17:23.807Z,23.60
2022-09-10T06:19:53.101Z,20.75
2022-09-10T06:22:20.794Z,16.67
2022-09-10T06:24:52.067Z,19.45
2022-09-10T06:27:20.250Z,18.88
2022-09-10T06:29:49.251Z,20.07
2022-09-10T06:32:17.615Z,16.88
2022-09-10T06:34:47.182Z,17.60
2022-09-10T06:37:15.636Z,18.13
2022-09-10T06:39:43.343Z,17.95
2022-09-10T06:42:11.995Z,17.80
2022-09-10T06:45:02.283Z,21.20
2022-09-10T06:50:59.585Z,18.90
2022-09-10T06:53:34.018Z,15.38
2022-09-10T06:56:06.159Z,17.17
2022-09-10T06:58:35.688Z,15.82
2022-09-10T07:01:12.279Z,16.52
2022-09-10T07:03:46.049Z,16.10
2022-09-10T07:06:19.882Z,16.50
2022-09-10T07:08:56.025Z,14.60
2022-09-10T07:11:25.686Z,13.90
2022-09-10T07:13:56.704Z,16.83
2022-09-10T07:16:29.955Z,16.02
2022-09-10T07:18:59.699Z,16.13
2022-09-10T07:21:38.827Z,15.50
2022-09-10T07:24:12.518Z,15.57
2022-09-10T07:26:43.136Z,15.15
2022-09-10T07:29:11.658Z,13.38
2022-09-10T07:31:41.894Z,15.65
2022-09-10T07:34:16.886Z,15.67
2022-09-10T07:36:44.976Z,12.65
2022-09-10T07:39:13.666Z,12.18
2022-09-10T07:41:43.244Z,12.02
2022-09-10T07:44:13.918Z,11.85
2022-09-10T07:46:44.365Z,11.17
2022-09-10T07:49:14.202Z,12.00
2022-09-10T07:51:45.974Z,11.40
2022-09-10T07:54:17.577Z,11.82
2022-09-10T07:56:51.567Z,16.35
2022-09-10T07:59:20.080Z,15.60
2022-09-10T08:01:51.621Z,13.90
2022-09-10T08:04:21.065Z,10.77
2022-09-10T08:06:48.695Z,10.98
2022-09-10T08:09:18.130Z,14.45
2022-09-10T08:11:52.186Z,12.63
2022-09-10T08:14:23.010Z,11.70
2022-09-10T08:16:53.946Z,12.30
2022-09-10T08:19:22.407Z,10.68
2022-09-10T08:21:52.346Z,13.88
2022-09-10T08:24:28.560Z,11.17
2022-09-10T08:26:56.786Z,10.10
2022-09-10T08:29:24.388Z,10.68
2022-09-10T08:31:52.374Z,9.68
2022-09-10T08:34:26.589Z,11.50
2022-09-10T08:37:03.788Z,10.93
2022-09-10T08:39:34.661Z,10.95
2022-09-10T08:42:24.972Z,13.60
2022-09-10T08:45:15.074Z,9.73
2022-09-10T08:47:59.302Z,12.02
2022-09-10T08:50:34.456Z,10.10
2022-09-10T08:53:05.330Z,11.15
2022-09-10T08:55:35.964Z,10.07
2022-09-10T08:58:42.811Z,9.80
2022-09-10T09:01:24.246Z,9.95
2022-09-10T09:03:55.214Z,10.63
2022-09-10T09:06:45.427Z,9.63
2022-09-10T09:09:15.789Z,10.07
2022-09-10T09:12:03.273Z,9.45
2022-09-10T09:14:50.869Z,9.00
2022-09-10T09:17:57.705Z,18.23
2022-09-10T09:20:45.157Z,12.50
2022-09-10T09:23:33.198Z,10.05
2022-09-10T09:26:11.759Z,12.43
2022-09-10T09:29:00.858Z,10.15
2022-09-10T09:31:34.058Z,10.33
2022-09-10T09:34:23.488Z,9.38
2022-09-10T09:36:54.250Z,11.98
2022-09-10T09:39:41.231Z,13.60
2022-09-10T09:42:19.919Z,10.25
2022-09-10T09:45:08.601Z,11.40
2022-09-10T09:47:36.541Z,9.25
2022-09-10T09:50:04.957Z,11.68
2022-09-10T09:52:33.348Z,10.77
2022-09-10T09:55:14.735Z,10.00
2022-09-10T09:57:44.006Z,11.67
2022-09-10T10:00:36.509Z,10.68
2022-09-10T10:03:25.187Z,8.95
2022-09-10T10:06:10.642Z,9.00
2022-09-10T10:08:43.125Z,9.65
2022-09-10T10:11:15.846Z,8.20
2022-09-10T10:13:46.322Z,12.10
2022-09-10T10:16:22.579Z,13.23
2022-09-10T10:18:51.345Z,8.68
2022-09-10T10:21:37.212Z,13.13
2022-09-10T10:24:06.229Z,9.33
2022-09-10T10:26:35.576Z,12.77
2022-09-10T10:29:20.047Z,12.73
2022-09-10T10:31:50.611Z,9.27
2022-09-10T10:34:40.520Z,12.15
2022-09-10T10:37:14.262Z,12.20
2022-09-10T10:39:57.324Z,12.02
2022-09-10T10:42:35.609Z,8.85
2022-09-10T10:45:56.583Z,9.63
2022-09-10T10:48:39.526Z,14.80
2022-09-10T10:51:15.219Z,10.50
2022-09-10T10:54:28.757Z,10.93
2022-09-10T10:57:20.450Z,11.73
2022-09-10T11:00:01.566Z,14.27
2022-09-10T11:02:52.205Z,13.25
2022-09-10T11:05:48.926Z,13.27
2022-09-10T11:08:22.034Z,15.07
2022-09-10T11:10:56.506Z,13.55
2022-09-10T11:13:32.255Z,12.55
2022-09-10T11:16:07.126Z,11.75
2022-09-10T11:18:39.662Z,9.33
2022-09-10T11:21:45.586Z,10.20
2022-09-10T11:24:28.469Z,11.05
2022-09-10T11:27:24.605Z,14.32
2022-09-10T11:30:12.245Z,7.90
2022-09-10T11:33:06.195Z,10.30
2022-09-10T11:35:43.594Z,10.85
2022-09-10T11:38:20.990Z,10.65
2022-09-10T11:41:17.637Z,11.30
2022-09-10T11:44:14.771Z,10.65
2022-09-10T11:47:11.765Z,18.07
2022-09-10T11:49:51.677Z,13.80
2022-09-10T11:52:21.535Z,8.00
2022-09-10T11:54:49.795Z,12.00
2022-09-10T11:57:23.258Z,11.88
2022-09-10T12:00:12.455Z,8.43
2022-09-10T12:02:43.081Z,10.80
2022-09-10T12:05:35.836Z,11.13
2022-09-10T12:08:33.080Z,9.35
2022-09-10T12:11:28.090Z,8.10
2022-09-10T12:13:57.748Z,9.50
2022-09-10T12:16:41.461Z,6.97
2022-09-10T12:19:29.725Z,8.77
2022-09-10T12:22:06.823Z,9.23
2022-09-10T12:24:39.833Z,8.30
2022-09-10T12:27:58.734Z,9.17
2022-09-10T12:30:28.724Z,10.52
2022-09-10T12:33:19.954Z,9.88
2022-09-10T12:35:51.562Z,7.75
2022-09-10T12:38:48.921Z,11.63
2022-09-10T12:41:25.974Z,10.37
2022-09-10T12:44:01.553Z,8.68
2022-09-10T12:46:31.407Z,8.63
2022-09-10T12:49:00.711Z,8.75
2022-09-10T12:51:52.004Z,9.35
2022-09-10T12:54:37.922Z,10.33
2022-09-10T12:57:29.262Z,8.98
2022-09-10T13:00:20.371Z,11.65
2022-09-10T13:03:09.924Z,8.55
2022-09-10T13:05:47.786Z,8.02
2022-09-10T13:08:42.310Z,11.10
2022-09-10T13:11:19.065Z,13.18
2022-09-10T13:13:50.191Z,12.43
2022-09-10T13:16:27.476Z,11.98
2022-09-10T13:19:15.591Z,9.35
2022-09-10T13:21:43.541Z,10.17
2022-09-10T13:24:38.946Z,8.88
2022-09-10T13:27:13.193Z,7.40
2022-09-10T13:29:49.470Z,9.55
2022-09-10T13:32:32.252Z,8.93
2022-09-10T13:35:19.981Z,9.27
2022-09-10T13:38:30.152Z,11.73
2022-09-10T13:41:10.687Z,10.30
2022-09-10T13:44:00.588Z,11.80
2022-09-10T13:46:36.128Z,10.38
2022-09-10T13:49:41.456Z,8.33
2022-09-10T13:52:15.600Z,6.47
2022-09-10T13:54:51.668Z,6.25
2022-09-10T13:57:33.620Z,7.35
2022-09-10T14:00:24.767Z,6.88
2022-09-10T14:03:00.471Z,6.20
2022-09-10T14:05:42.056Z,6.82
2022-09-10T14:08:27.036Z,9.80
2022-09-10T14:11:01.134Z,7.10
2022-09-10T14:13:46.438Z,7.78
2022-09-10T14:16:20.460Z,7.57
2022-09-10T14:18:55.774Z,7.85
2022-09-10T14:21:27.366Z,6.70
2022-09-10T14:23:58.494Z,7.35
2022-09-10T14:26:29.281Z,10.32
2022-09-10T14:29:02.022Z,7.17
2022-09-10T14:31:34.856Z,10.30
2022-09-10T14:34:32.467Z,9.77
2022-09-10T14:37:32.516Z,8.50
2022-09-10T14:40:18.367Z,8.73
2022-09-10T14:42:48.334Z,7.97
2022-09-10T14:45:48.171Z,8.10
2022-09-10T14:48:29.790Z,10.05
2022-09-10T14:51:16.242Z,7.80
2022-09-10T14:53:46.652Z,6.80
2022-09-10T14:56:41.136Z,8.30
2022-09-10T14:59:42.812Z,5.40
2022-09-10T15:02:24.857Z,8.88
2022-09-10T15:04:53.380Z,5.45
2022-09-10T15:07:23.847Z,6.10
2022-09-10T15:09:53.772Z,5.57
2022-09-10T15:12:32.374Z,8.85
2022-09-10T15:15:00.329Z,6.97
2022-09-10T15:17:28.578Z,6.65
2022-09-10T15:19:56.447Z,8.25
2022-09-10T15:22:29.913Z,6.73
2022-09-10T15:25:10.533Z,8.43
2022-09-10T15:27:39.074Z,6.68
2022-09-10T15:30:07.557Z,6.47
2022-09-10T15:32:35.939Z,7.70
2022-09-10T15:35:04.821Z,9.03
2022-09-10T15:37:33.197Z,7.30
2022-09-10T15:40:00.864Z,7.18
2022-09-10T15:42:28.704Z,7.03
2022-09-10T15:44:56.587Z,7.78
2022-09-10T15:47:24.442Z,7.27
2022-09-10T15:49:53.134Z,8.93
2022-09-10T15:52:21.404Z,6.22
2022-09-10T15:54:48.985Z,5.70
2022-09-10T15:57:17.033Z,7.63
2022-09-10T15:59:44.898Z,7.43
2022-09-10T16:02:16.113Z,9.77
2022-09-10T16:04:44.029Z,8.82
2022-09-10T16:07:11.968Z,5.90
2022-09-10T16:09:39.739Z,8.15
2022-09-10T16:12:08.298Z,6.70
2022-09-10T16:14:36.336Z,5.88
2022-09-10T16:17:10.713Z,7.47
2022-09-10T16:19:38.789Z,7.10
2022-09-10T16:22:06.645Z,6.70
2022-09-10T16:24:34.669Z,6.17
2022-09-10T16:27:02.676Z,13.45
2022-09-10T16:29:30.512Z,11.45
2022-09-10T16:31:58.538Z,7.25
2022-09-10T16:34:26.805Z,8.48
2022-09-10T16:36:54.546Z,7.27
2022-09-10T16:39:22.524Z,9.07
2022-09-10T16:41:51.317Z,8.23
2022-09-10T16:44:19.730Z,8.10
2022-09-10T16:46:48.418Z,8.60
2022-09-10T16:49:18.957Z,7.57
2022-09-10T16:51:49.367Z,7.53
2022-09-10T16:54:21.592Z,8.50
2022-09-10T16:56:50.644Z,8.82
2022-09-10T16:59:23.799Z,7.15
2022-09-10T17:01:52.279Z,7.20
2022-09-10T17:04:28.148Z,8.30
2022-09-10T17:06:57.814Z,7.47
2022-09-10T17:09:26.196Z,10.38
2022-09-10T17:11:54.486Z,6.78
2022-09-10T17:14:23.227Z,7.60
2022-09-10T17:16:51.114Z,8.23
2022-09-10T17:19:23.994Z,6.28
2022-09-10T17:21:55.888Z,10.77
2022-09-10T17:24:25.634Z,7.65
2022-09-10T17:26:55.441Z,6.10
2022-09-10T17:29:25.363Z,6.95
2022-09-10T17:31:55.563Z,6.57
2022-09-10T17:34:24.876Z,7.32
2022-09-10T17:36:52.684Z,7.70
2022-09-10T17:39:20.943Z,12.23
2022-09-10T17:41:48.941Z,8.38
2022-09-10T17:44:17.070Z,6.60
2022-09-10T17:46:45.335Z,7.15
2022-09-10T17:49:14.839Z,6.72
2022-09-10T17:51:43.140Z,5.97
2022-09-10T17:54:11.361Z,7.07
2022-09-10T17:56:39.486Z,5.78
2022-09-10T17:59:07.225Z,6.68
2022-09-10T18:01:39.199Z,10.25
2022-09-10T18:04:09.197Z,7.17
2022-09-10T18:06:37.304Z,8.13
2022-09-10T18:09:06.001Z,6.07
2022-09-10T18:11:36.976Z,7.15
2022-09-10T18:14:05.583Z,8.48
2022-09-10T18:16:36.259Z,6.57
2022-09-10T18:19:12.962Z,6.20
2022-09-10T18:21:42.509Z,8.70
2022-09-10T18:24:12.962Z,8.07
2022-09-10T18:26:43.668Z,7.63
2022-09-10T18:29:14.929Z,7.13
2022-09-10T18:31:45.141Z,7.38
2022-09-10T18:34:19.498Z,8.95
2022-09-10T18:36:53.718Z,7.50
2022-09-10T18:39:22.660Z,7.40
2022-09-10T18:41:50.594Z,7.07
2022-09-10T18:44:27.832Z,6.55
2022-09-10T18:46:56.322Z,5.85
2022-09-10T18:49:25.393Z,7.00
2022-09-10T18:51:55.552Z,6.53
2022-09-10T18:54:25.257Z,8.27
2022-09-10T18:56:53.670Z,7.63
2022-09-10T18:59:23.817Z,6.47
2022-09-10T19:01:54.468Z,6.78
2022-09-10T19:04:27.557Z,5.82
2022-09-10T19:06:57.434Z,8.03
2022-09-10T19:09:30.364Z,7.10
2022-09-10T19:12:00.229Z,7.28
2022-09-10T19:14:30.791Z,8.07
2022-09-10T19:17:00.638Z,10.88
2022-09-10T19:19:32.062Z,6.80
2022-09-10T19:22:06.429Z,7.10
2022-09-10T19:24:54.108Z,5.90
2022-09-10T19:27:24.482Z,6.78
2022-09-10T19:29:52.196Z,7.40
2022-09-10T19:32:20.311Z,9.10
2022-09-10T19:34:52.497Z,8.55
2022-09-10T19:37:21.142Z,7.35
2022-09-10T19:39:49.538Z,7.95
2022-09-10T19:42:17.692Z,9.70
2022-09-10T19:44:45.393Z,6.60
2022-09-10T19:47:13.398Z,6.70
2022-09-10T19:49:41.061Z,8.48
2022-09-10T19:52:08.800Z,10.10
2022-09-10T19:54:37.021Z,6.90
2022-09-10T19:57:04.944Z,6.80
2022-09-10T19:59:32.577Z,9.13
2022-09-10T20:02:00.938Z,7.07
2022-09-10T20:04:29.158Z,7.07
2022-09-10T20:06:57.014Z,7.63
2022-09-10T20:09:25.150Z,6.13
2022-09-10T20:11:53.060Z,8.95
2022-09-10T20:14:21.349Z,7.15
2022-09-10T20:16:49.368Z,6.93
2022-09-10T20:19:18.846Z,9.55
2022-09-10T20:21:47.933Z,9.03
2022-09-10T20:24:16.950Z,6.35
2022-09-10T20:26:46.844Z,8.10
2022-09-10T20:29:18.201Z,10.65
2022-09-10T20:31:47.361Z,9.73
2022-09-10T20:34:18.174Z,8.27
2022-09-10T20:36:46.372Z,7.60
2022-09-10T20:39:16.561Z,8.05
2022-09-10T20:41:45.336Z,7.00
2022-09-10T20:44:16.009Z,7.28
2022-09-10T20:46:44.593Z,12.63
2022-09-10T20:49:13.938Z,7.28
2022-09-10T20:51:44.194Z,12.07
2022-09-10T20:54:17.964Z,8.00
2022-09-10T20:56:46.393Z,9.13
2022-09-10T20:59:16.731Z,8.00
2022-09-10T21:01:46.460Z,8.15
2022-09-10T21:04:15.416Z,7.53
2022-09-10T21:06:43.653Z,9.23
2022-09-10T21:09:12.369Z,10.30
2022-09-10T21:11:40.470Z,12.67
2022-09-10T21:14:09.211Z,9.30
2022-09-10T21:16:40.310Z,7.28
2022-09-10T21:19:13.838Z,12.27
2022-09-10T21:21:43.083Z,9.57
2022-09-10T21:24:13.650Z,7.83
2022-09-10T21:26:43.671Z,8.57
2022-09-10T21:29:14.661Z,8.32
2022-09-10T21:31:43.002Z,9.98
2022-09-10T21:34:11.388Z,11.40
2022-09-10T21:36:41.355Z,9.60
2022-09-10T21:39:16.666Z,8.15
2022-09-10T21:41:47.488Z,8.95
2022-09-10T21:44:18.190Z,7.30
2022-09-10T21:46:47.209Z,7.10
2022-09-10T21:49:15.817Z,7.63
2022-09-10T21:51:44.169Z,7.97
2022-09-10T21:54:15.654Z,7.68
2022-09-10T21:56:43.337Z,8.65
2022-09-10T21:59:12.693Z,8.25
2022-09-10T22:01:46.057Z,10.37
2022-09-10T22:04:19.956Z,7.60
2022-09-10T22:06:49.813Z,7.10
2022-09-10T22:09:18.060Z,7.72
2022-09-10T22:11:50.400Z,9.07
2022-09-10T22:14:21.722Z,7.90
2022-09-10T22:16:50.116Z,6.88
2022-09-10T22:19:20.806Z,9.23
2022-09-10T22:21:49.117Z,9.95
2022-09-10T22:24:19.843Z,6.45
2022-09-10T22:26:48.342Z,6.90
2022-09-10T22:29:18.815Z,7.43
2022-09-10T22:31:47.384Z,7.53
2022-09-10T22:34:16.670Z,6.32
2022-09-10T22:36:46.218Z,7.88
2022-09-10T22:39:19.785Z,6.63
2022-09-10T22:41:49.214Z,8.30
2022-09-10T22:44:20.432Z,8.95
2022-09-10T22:46:48.506Z,7.57
2022-09-10T22:49:17.296Z,6.22
2022-09-10T22:51:45.256Z,5.63
2022-09-10T22:54:12.922Z,8.82
2022-09-10T22:56:42.248Z,8.93
2022-09-10T22:59:14.079Z,8.63
2022-09-10T23:01:47.707Z,6.13
2022-09-10T23:04:16.374Z,7.07
2022-09-10T23:06:44.452Z,7.90
2022-09-10T23:09:15.347Z,7.70
2022-09-10T23:11:44.974Z,6.30
2022-09-10T23:14:15.934Z,9.43
2022-09-10T23:16:48.710Z,8.07
2022-09-10T23:19:20.389Z,7.78
2022-09-10T23:21:51.432Z,9.27
2022-09-10T23:24:22.373Z,7.07
2022-09-10T23:26:51.045Z,9.02
2022-09-10T23:29:18.851Z,6.27
2022-09-10T23:31:47.991Z,6.57
2022-09-10T23:34:18.819Z,6.85
2022-09-10T23:36:48.385Z,7.50
2022-09-10T23:39:20.134Z,6.82
2022-09-10T23:41:51.629Z,9.70
2022-09-10T23:44:20.674Z,7.88
2022-09-10T23:46:48.511Z,9.20
2022-09-10T23:49:16.978Z,5.95
2022-09-10T23:51:45.776Z,7.40
2022-09-10T23:54:13.800Z,6.10
2022-09-10T23:56:42.018Z,6.75
2022-09-10T23:59:11.797Z,5.03
